Terminal Aerodrome Forecast
Issued by NWS

Home | Current Version | Previous Version | Text Only | Print | Product List | Glossary On
Versions: 1 2 3 4 5 6 7 8 9 10 11 12 13 14 15
000
FTUS42 KMLB 022329
TAFSFB
TAF
KSFB 022329Z 0300/0324 20005KT P6SM VCSH FEW010 BKN090 BKN120
      TEMPO 0300/0301 -RA
     FM030300 18003KT P6SM SCT030 OVC060
     FM031400 14004KT P6SM SCT020 BKN250
     FM031800 10007KT P6SM VCTS SCT025CB BKN250=

USA.gov is the U.S. government's official web portal to all federal, state and local government web resources and services.